Time;durP1;ratioP1;P1;durP2;ratioP2;P2;SDS_P1;SDS_P2;PMS_P1;PMS_P2;Temp;Humidity;BMP_temperature;BMP_pressure;BME280_temperature;BME280_humidity;BME280_pressure;Samples;Min_cycle;Max_cycle;Signal;HPM_P1;HPM_P2
2024/02/14 00:01:16;;;;;;;0.32;0.32;;;;;;;;;;5073980;28;20024;-67
2024/02/14 00:03:41;;;;;;;0.50;0.40;;;;;;;;;;5073950;28;20029;-67
2024/02/14 00:06:06;;;;;;;0.10;0.10;;;;;;;;;;5073570;28;20276;-66
2024/02/14 00:08:32;;;;;;;0.82;0.82;;;;;;;;;;5073131;28;20260;-67
2024/02/14 00:10:57;;;;;;;0.45;0.45;;;;;;;;;;5073384;28;20527;-67
2024/02/14 00:13:22;;;;;;;0.67;0.67;;;;;;;;;;5073428;28;20020;-67
2024/02/14 00:15:47;;;;;;;0.70;0.60;;;;;;;;;;5073483;28;20273;-67
2024/02/14 00:18:13;;;;;;;0.10;0.10;;;;;;;;;;5073633;28;20264;-68
2024/02/14 00:20:41;;;;;;;0.00;0.00;;;;;;;;;;5073424;28;20244;-68
2024/02/14 00:23:06;;;;;;;0.00;0.00;;;;;;;;;;5073259;28;20094;-68
2024/02/14 00:25:32;;;;;;;4.03;0.63;;;;;;;;;;5073640;28;20020;-68
2024/02/14 00:28:00;;;;;;;0.17;0.17;;;;;;;;;;5074009;28;20392;-68
2024/02/14 00:30:26;;;;;;;0.10;0.10;;;;;;;;;;5093757;28;20541;-69
2024/02/14 00:32:51;;;;;;;0.08;0.08;;;;;;;;;;5093823;28;20023;-68
2024/02/14 00:35:16;;;;;;;2.20;1.03;;;;;;;;;;5090813;28;20028;-68
2024/02/14 00:37:41;;;;;;;6.30;0.83;;;;;;;;;;5092147;28;20248;-68
2024/02/14 00:40:07;;;;;;;0.40;0.40;;;;;;;;;;5093139;28;20016;-68
2024/02/14 00:42:33;;;;;;;0.30;0.30;;;;;;;;;;5093682;28;20024;-68
2024/02/14 00:44:58;;;;;;;0.38;0.38;;;;;;;;;;5093541;28;20027;-68
2024/02/14 00:47:23;;;;;;;0.00;0.00;;;;;;;;;;5093428;28;20038;-68
2024/02/14 00:49:49;;;;;;;0.50;0.30;;;;;;;;;;5093397;28;20494;-68
2024/02/14 00:52:16;;;;;;;0.00;0.00;;;;;;;;;;5093423;28;20297;-68
2024/02/14 00:54:41;;;;;;;0.10;0.10;;;;;;;;;;5093209;28;20460;-68
2024/02/14 00:57:06;;;;;;;1.60;0.37;;;;;;;;;;5093157;28;20023;-68
2024/02/14 00:59:32;;;;;;;0.10;0.10;;;;;;;;;;5093511;28;20016;-68
2024/02/14 01:01:57;;;;;;;0.10;0.10;;;;;;;;;;5093236;28;20260;-68
2024/02/14 01:04:22;;;;;;;0.37;0.27;;;;;;;;;;5088675;28;20363;-68
2024/02/14 01:06:49;;;;;;;0.10;0.10;;;;;;;;;;5072978;28;20344;-68
2024/02/14 01:09:14;;;;;;;0.03;0.03;;;;;;;;;;5073117;28;20772;-68
2024/02/14 01:11:40;;;;;;;0.43;0.43;;;;;;;;;;5072775;28;20025;-68
2024/02/14 01:14:05;;;;;;;0.03;0.03;;;;;;;;;;5054968;28;20388;-68
2024/02/14 01:16:31;;;;;;;0.10;0.10;;;;;;;;;;5073063;28;20025;-68
2024/02/14 01:18:56;;;;;;;0.28;0.28;;;;;;;;;;5072799;28;20472;-68
2024/02/14 01:21:21;;;;;;;0.15;0.15;;;;;;;;;;5075579;28;20099;-68
2024/02/14 01:23:47;;;;;;;0.05;0.05;;;;;;;;;;5076543;28;20058;-68
2024/02/14 01:26:12;;;;;;;0.10;0.10;;;;;;;;;;5076750;28;20031;-68
2024/02/14 01:28:37;;;;;;;0.00;0.00;;;;;;;;;;5076982;28;20261;-68
2024/02/14 01:31:03;;;;;;;0.20;0.20;;;;;;;;;;5076510;28;20378;-68
2024/02/14 01:33:30;;;;;;;0.70;0.32;;;;;;;;;;5076524;28;20073;-68
2024/02/14 01:35:56;;;;;;;0.20;0.20;;;;;;;;;;5093339;28;20309;-68
2024/02/14 01:38:21;;;;;;;0.05;0.05;;;;;;;;;;5078486;28;20158;-68
2024/02/14 01:40:47;;;;;;;0.10;0.10;;;;;;;;;;5096937;28;20020;-68
2024/02/14 01:43:14;;;;;;;0.10;0.10;;;;;;;;;;5096224;28;20379;-68
2024/02/14 01:45:39;;;;;;;0.38;0.38;;;;;;;;;;5096891;28;20024;-68
2024/02/14 01:48:06;;;;;;;0.10;0.10;;;;;;;;;;5096600;28;20446;-68
2024/02/14 01:50:31;;;;;;;0.25;0.25;;;;;;;;;;5096765;28;20379;-68
2024/02/14 01:52:59;;;;;;;0.30;0.30;;;;;;;;;;5096720;28;20016;-68
2024/02/14 01:55:24;;;;;;;0.43;0.40;;;;;;;;;;5096555;28;20024;-68
2024/02/14 01:57:49;;;;;;;0.10;0.10;;;;;;;;;;5089177;28;20051;-68
2024/02/14 02:00:17;;;;;;;0.25;0.25;;;;;;;;;;5075976;28;20257;-68
2024/02/14 02:02:43;;;;;;;0.30;0.30;;;;;;;;;;5076241;28;20021;-68
2024/02/14 02:05:08;;;;;;;0.20;0.20;;;;;;;;;;5076218;28;20136;-68
2024/02/14 02:07:33;;;;;;;0.00;0.00;;;;;;;;;;5075948;28;20013;-68
2024/02/14 02:09:59;;;;;;;0.20;0.20;;;;;;;;;;5076152;28;20025;-69
2024/02/14 02:12:27;;;;;;;0.10;0.10;;;;;;;;;;5076594;28;20380;-68
2024/02/14 02:14:52;;;;;;;0.20;0.20;;;;;;;;;;5096255;28;20239;-68
2024/02/14 02:17:18;;;;;;;0.17;0.15;;;;;;;;;;5095840;28;20024;-68
2024/02/14 02:19:44;;;;;;;0.10;0.10;;;;;;;;;;5096153;28;20024;-68
2024/02/14 02:22:09;;;;;;;0.20;0.20;;;;;;;;;;5095932;28;20024;-68
2024/02/14 02:24:35;;;;;;;0.00;0.00;;;;;;;;;;5095850;28;20496;-69
2024/02/14 02:27:01;;;;;;;0.00;0.00;;;;;;;;;;5094009;28;20028;-68
2024/02/14 02:29:26;;;;;;;0.22;0.22;;;;;;;;;;5095747;28;20027;-68
2024/02/14 02:31:52;;;;;;;0.47;0.43;;;;;;;;;;5094866;28;20047;-68
2024/02/14 02:34:17;;;;;;;0.13;0.13;;;;;;;;;;5092470;28;20069;-68
2024/02/14 02:36:43;;;;;;;0.57;0.57;;;;;;;;;;5075281;28;20024;-68
2024/02/14 02:39:09;;;;;;;0.20;0.20;;;;;;;;;;5075690;28;20020;-67
2024/02/14 02:41:34;;;;;;;0.10;0.10;;;;;;;;;;5075515;28;20044;-67
2024/02/14 02:44:01;;;;;;;0.10;0.10;;;;;;;;;;5075211;28;20028;-67
2024/02/14 02:46:26;;;;;;;0.82;0.60;;;;;;;;;;5075464;28;20443;-67
2024/02/14 02:48:54;;;;;;;0.85;0.60;;;;;;;;;;5075139;28;20059;-67
2024/02/14 02:51:20;;;;;;;0.28;0.28;;;;;;;;;;5074957;28;20032;-68
2024/02/14 02:53:45;;;;;;;0.30;0.30;;;;;;;;;;5088960;28;20028;-67
2024/02/14 02:56:12;;;;;;;0.00;0.00;;;;;;;;;;5095185;28;20490;-67
2024/02/14 02:58:37;;;;;;;0.15;0.15;;;;;;;;;;5095436;28;20719;-67
2024/02/14 03:01:04;;;;;;;0.08;0.08;;;;;;;;;;5095171;28;20031;-67
2024/02/14 03:03:32;;;;;;;0.20;0.20;;;;;;;;;;5095040;28;20012;-67
2024/02/14 03:05:59;;;;;;;0.28;0.28;;;;;;;;;;5078350;28;20542;-67
2024/02/14 03:08:25;;;;;;;0.10;0.10;;;;;;;;;;5074996;28;20047;-67
2024/02/14 03:10:51;;;;;;;0.10;0.10;;;;;;;;;;5074952;28;20539;-67
2024/02/14 03:13:16;;;;;;;7.43;0.57;;;;;;;;;;5074633;28;20044;-67
2024/02/14 03:15:43;;;;;;;0.43;0.43;;;;;;;;;;5074482;28;20024;-67
2024/02/14 03:18:09;;;;;;;0.20;0.20;;;;;;;;;;5074488;28;20025;-67
2024/02/14 03:20:35;;;;;;;0.85;0.52;;;;;;;;;;5074715;28;20020;-67
2024/02/14 03:23:00;;;;;;;0.20;0.20;;;;;;;;;;5074612;28;20412;-67
2024/02/14 03:25:26;;;;;;;0.10;0.10;;;;;;;;;;5074397;28;20020;-67
2024/02/14 03:27:52;;;;;;;0.25;0.20;;;;;;;;;;5074559;28;20117;-67
2024/02/14 03:30:18;;;;;;;0.00;0.00;;;;;;;;;;5074599;28;20362;-67
2024/02/14 03:32:43;;;;;;;0.10;0.10;;;;;;;;;;5074335;28;20019;-67
2024/02/14 03:35:10;;;;;;;0.08;0.08;;;;;;;;;;5074386;28;20526;-67
2024/02/14 03:37:37;;;;;;;5.88;0.40;;;;;;;;;;5074467;28;20525;-67
2024/02/14 03:40:04;;;;;;;0.47;0.47;;;;;;;;;;5074049;28;20074;-67
2024/02/14 03:42:29;;;;;;;0.30;0.30;;;;;;;;;;5075325;28;20021;-67
2024/02/14 03:45:02;;;;;;;0.10;0.10;;;;;;;;;;5094120;28;20379;-67
2024/02/14 03:47:27;;;;;;;0.60;0.30;;;;;;;;;;5094342;28;20736;-67
2024/02/14 03:49:52;;;;;;;0.10;0.10;;;;;;;;;;5094259;28;20023;-67
2024/02/14 03:52:18;;;;;;;0.20;0.20;;;;;;;;;;5094424;28;20023;-67
2024/02/14 03:54:43;;;;;;;2.33;0.90;;;;;;;;;;5094393;28;20402;-67
2024/02/14 03:57:08;;;;;;;0.05;0.05;;;;;;;;;;5093961;28;20027;-67
2024/02/14 03:59:38;;;;;;;0.28;0.28;;;;;;;;;;5094302;28;20020;-67
2024/02/14 04:02:04;;;;;;;0.20;0.20;;;;;;;;;;5082526;28;20016;-67
2024/02/14 04:04:29;;;;;;;0.65;0.63;;;;;;;;;;5073688;28;20085;-67
2024/02/14 04:06:54;;;;;;;0.00;0.00;;;;;;;;;;5073646;28;20020;-67
2024/02/14 04:09:20;;;;;;;0.15;0.15;;;;;;;;;;5073899;28;20113;-67
2024/02/14 04:11:45;;;;;;;0.10;0.10;;;;;;;;;;5073449;28;20027;-67
2024/02/14 04:14:10;;;;;;;0.30;0.30;;;;;;;;;;5073522;28;20353;-67
2024/02/14 04:16:36;;;;;;;0.25;0.25;;;;;;;;;;5073702;28;20301;-67
2024/02/14 04:19:01;;;;;;;1.17;0.55;;;;;;;;;;5073428;28;20008;-67
2024/02/14 04:21:27;;;;;;;0.10;0.10;;;;;;;;;;5073548;28;20096;-67
2024/02/14 04:23:52;;;;;;;0.10;0.10;;;;;;;;;;5073316;28;20044;-67
2024/02/14 04:26:24;;;;;;;0.45;0.30;;;;;;;;;;5073686;28;20298;-67
2024/02/14 04:28:49;;;;;;;0.20;0.20;;;;;;;;;;5073562;28;20519;-67
2024/02/14 04:31:15;;;;;;;0.13;0.13;;;;;;;;;;5090854;28;20036;-67
2024/02/14 04:33:40;;;;;;;1.05;0.52;;;;;;;;;;5075410;28;20039;-67
2024/02/14 04:36:06;;;;;;;0.10;0.10;;;;;;;;;;5092684;28;20036;-67
2024/02/14 04:38:31;;;;;;;0.20;0.20;;;;;;;;;;5093396;28;20073;-67
2024/02/14 04:40:58;;;;;;;0.10;0.10;;;;;;;;;;5093436;28;20095;-67
2024/02/14 04:43:23;;;;;;;0.00;0.00;;;;;;;;;;5093338;28;20024;-67
2024/02/14 04:45:49;;;;;;;0.00;0.00;;;;;;;;;;5093669;28;20020;-67
2024/02/14 04:48:14;;;;;;;0.20;0.20;;;;;;;;;;5093627;28;20101;-67
2024/02/14 04:50:39;;;;;;;0.17;0.17;;;;;;;;;;5093297;28;20382;-67
2024/02/14 04:53:04;;;;;;;0.55;0.43;;;;;;;;;;5093256;28;20038;-67
2024/02/14 04:55:30;;;;;;;0.10;0.10;;;;;;;;;;5094874;28;20024;-67
2024/02/14 04:57:55;;;;;;;0.00;0.00;;;;;;;;;;5097348;28;20024;-68
2024/02/14 05:00:20;;;;;;;0.20;0.17;;;;;;;;;;5097515;28;20243;-68
2024/02/14 05:02:45;;;;;;;0.40;0.40;;;;;;;;;;5097706;28;20252;-68
2024/02/14 05:05:11;;;;;;;0.27;0.27;;;;;;;;;;5097033;28;20264;-68
2024/02/14 05:07:36;;;;;;;0.10;0.10;;;;;;;;;;5097589;28;20251;-68
2024/02/14 05:10:01;;;;;;;0.07;0.07;;;;;;;;;;5097352;28;20016;-68
2024/02/14 05:12:27;;;;;;;0.20;0.20;;;;;;;;;;5097204;28;20255;-68
2024/02/14 05:14:52;;;;;;;0.10;0.10;;;;;;;;;;5097371;28;20315;-68
2024/02/14 05:17:18;;;;;;;0.10;0.10;;;;;;;;;;5097385;28;20120;-68
2024/02/14 05:19:43;;;;;;;0.85;0.43;;;;;;;;;;5097077;28;20478;-68
2024/02/14 05:22:08;;;;;;;0.10;0.10;;;;;;;;;;5097058;28;20016;-68
2024/02/14 05:24:35;;;;;;;0.10;0.10;;;;;;;;;;5096578;28;20043;-68
2024/02/14 05:27:00;;;;;;;0.13;0.13;;;;;;;;;;5096727;28;20024;-68
2024/02/14 05:29:25;;;;;;;0.30;0.30;;;;;;;;;;5097040;28;20543;-68
2024/02/14 05:31:55;;;;;;;1.50;0.43;;;;;;;;;;5096586;28;20020;-68
2024/02/14 05:34:20;;;;;;;0.10;0.10;;;;;;;;;;5088800;28;20273;-68
2024/02/14 05:36:45;;;;;;;0.10;0.10;;;;;;;;;;5090432;28;20040;-69
2024/02/14 05:39:11;;;;;;;0.15;0.15;;;;;;;;;;5087196;28;20409;-69
2024/02/14 05:41:36;;;;;;;0.10;0.10;;;;;;;;;;5076319;28;20020;-69
2024/02/14 05:44:01;;;;;;;0.08;0.08;;;;;;;;;;5075628;28;20066;-68
2024/02/14 05:46:27;;;;;;;0.00;0.00;;;;;;;;;;5076065;28;20032;-68
2024/02/14 05:48:53;;;;;;;0.10;0.10;;;;;;;;;;5076208;28;20264;-68
2024/02/14 05:51:18;;;;;;;1.10;0.52;;;;;;;;;;5076315;28;20032;-68
2024/02/14 05:53:44;;;;;;;0.60;0.60;;;;;;;;;;5076448;28;20032;-68
2024/02/14 05:56:09;;;;;;;0.17;0.17;;;;;;;;;;5076057;28;20028;-70
2024/02/14 05:58:34;;;;;;;0.17;0.17;;;;;;;;;;5076148;28;20048;-68
2024/02/14 06:00:59;;;;;;;0.40;0.40;;;;;;;;;;5076153;28;20261;-68
2024/02/14 06:03:25;;;;;;;0.20;0.20;;;;;;;;;;5075993;28;20851;-68
2024/02/14 06:05:51;;;;;;;0.10;0.10;;;;;;;;;;5076178;28;20039;-68
2024/02/14 06:08:16;;;;;;;1.08;0.90;;;;;;;;;;5076302;28;20388;-67
2024/02/14 06:10:41;;;;;;;0.10;0.10;;;;;;;;;;5075900;28;20016;-67
2024/02/14 06:13:07;;;;;;;0.47;0.47;;;;;;;;;;5075827;28;20032;-67
2024/02/14 06:15:32;;;;;;;0.53;0.53;;;;;;;;;;5075696;28;20318;-66
2024/02/14 06:17:57;;;;;;;0.77;0.60;;;;;;;;;;5075822;28;20086;-67
2024/02/14 06:20:23;;;;;;;0.53;0.53;;;;;;;;;;5075978;28;20645;-67
2024/02/14 06:22:48;;;;;;;0.10;0.10;;;;;;;;;;5075457;28;20676;-66
2024/02/14 06:25:13;;;;;;;0.03;0.03;;;;;;;;;;5075656;28;20026;-66
2024/02/14 06:27:38;;;;;;;0.32;0.32;;;;;;;;;;5075628;28;20248;-67
2024/02/14 06:30:04;;;;;;;0.00;0.00;;;;;;;;;;5075561;28;20016;-67
2024/02/14 06:32:29;;;;;;;0.10;0.10;;;;;;;;;;5075443;28;20253;-67
2024/02/14 06:34:54;;;;;;;0.10;0.10;;;;;;;;;;5075716;28;20020;-67
2024/02/14 06:37:20;;;;;;;0.08;0.08;;;;;;;;;;5075301;28;20138;-67
2024/02/14 06:39:45;;;;;;;0.10;0.10;;;;;;;;;;5075637;28;20392;-66
2024/02/14 06:42:10;;;;;;;0.10;0.10;;;;;;;;;;5075326;28;20020;-67
2024/02/14 06:44:36;;;;;;;0.13;0.13;;;;;;;;;;5075298;28;20332;-66
2024/02/14 06:47:01;;;;;;;0.10;0.10;;;;;;;;;;5075266;28;20095;-66
2024/02/14 06:49:26;;;;;;;0.20;0.20;;;;;;;;;;5075258;28;20714;-67
2024/02/14 06:51:51;;;;;;;0.10;0.10;;;;;;;;;;5075100;28;20320;-67
2024/02/14 06:54:19;;;;;;;0.20;0.20;;;;;;;;;;5075095;28;20590;-67
2024/02/14 06:56:44;;;;;;;0.43;0.43;;;;;;;;;;5075209;28;20033;-67
2024/02/14 06:59:09;;;;;;;0.20;0.20;;;;;;;;;;5075009;28;20100;-66
2024/02/14 07:01:35;;;;;;;0.90;0.70;;;;;;;;;;5074922;28;20020;-67
2024/02/14 07:04:01;;;;;;;0.43;0.43;;;;;;;;;;5074933;28;20465;-67
2024/02/14 07:06:26;;;;;;;0.10;0.10;;;;;;;;;;5075086;28;20277;-67
2024/02/14 07:08:51;;;;;;;1.95;0.40;;;;;;;;;;5074821;28;20028;-66
2024/02/14 07:11:17;;;;;;;0.30;0.30;;;;;;;;;;5074898;28;20029;-66
2024/02/14 07:13:42;;;;;;;0.43;0.43;;;;;;;;;;5074915;28;20260;-66
2024/02/14 07:16:08;;;;;;;0.25;0.25;;;;;;;;;;5074517;28;20380;-67
2024/02/14 07:18:36;;;;;;;0.27;0.27;;;;;;;;;;5074231;28;20380;-67
2024/02/14 07:21:01;;;;;;;0.25;0.25;;;;;;;;;;5074595;28;20237;-66
2024/02/14 07:23:26;;;;;;;0.30;0.30;;;;;;;;;;5072256;28;20051;-67
2024/02/14 07:25:52;;;;;;;0.30;0.30;;;;;;;;;;5074708;28;20028;-67
2024/02/14 07:28:17;;;;;;;8.35;0.65;;;;;;;;;;5074394;28;20027;-67
2024/02/14 07:30:43;;;;;;;1.08;0.82;;;;;;;;;;5074610;28;20024;-67
2024/02/14 07:33:09;;;;;;;0.60;0.60;;;;;;;;;;5074323;28;20021;-66
2024/02/14 07:35:34;;;;;;;5.38;0.65;;;;;;;;;;5074134;28;20025;-67
2024/02/14 07:37:59;;;;;;;0.43;0.43;;;;;;;;;;5074261;28;20111;-67
2024/02/14 07:40:25;;;;;;;0.20;0.20;;;;;;;;;;5074012;28;20324;-67
2024/02/14 07:42:50;;;;;;;0.20;0.20;;;;;;;;;;5074362;28;20017;-67
2024/02/14 07:45:16;;;;;;;0.20;0.20;;;;;;;;;;5074089;28;20380;-67
2024/02/14 07:47:42;;;;;;;0.20;0.20;;;;;;;;;;5074268;28;20237;-67
2024/02/14 07:50:07;;;;;;;0.20;0.20;;;;;;;;;;5074245;28;20021;-67
2024/02/14 07:52:32;;;;;;;0.10;0.10;;;;;;;;;;5073908;28;20009;-67
2024/02/14 07:54:58;;;;;;;0.20;0.20;;;;;;;;;;5074164;28;20031;-67
2024/02/14 07:57:24;;;;;;;0.45;0.43;;;;;;;;;;5073888;28;20077;-67
2024/02/14 07:59:50;;;;;;;0.17;0.17;;;;;;;;;;5073734;28;20017;-67
2024/02/14 08:02:15;;;;;;;1.13;1.08;;;;;;;;;;5073757;28;20069;-67
2024/02/14 08:04:40;;;;;;;0.23;0.23;;;;;;;;;;5073768;28;20036;-67
2024/02/14 08:07:05;;;;;;;0.25;0.25;;;;;;;;;;5073941;28;20283;-67
2024/02/14 08:09:31;;;;;;;0.47;0.47;;;;;;;;;;5073690;28;20029;-67
2024/02/14 08:11:56;;;;;;;0.50;0.30;;;;;;;;;;5073618;28;20039;-67
2024/02/14 08:14:21;;;;;;;0.00;0.00;;;;;;;;;;5073591;28;20027;-67
2024/02/14 08:16:47;;;;;;;0.77;0.70;;;;;;;;;;5073384;28;20269;-67
2024/02/14 08:19:12;;;;;;;0.43;0.43;;;;;;;;;;5073746;28;20055;-66
2024/02/14 08:21:37;;;;;;;0.93;0.30;;;;;;;;;;5073521;28;20074;-66
2024/02/14 08:24:02;;;;;;;0.35;0.35;;;;;;;;;;5073321;28;20315;-67
2024/02/14 08:26:28;;;;;;;0.20;0.20;;;;;;;;;;5073441;28;20073;-67
2024/02/14 08:28:53;;;;;;;0.00;0.00;;;;;;;;;;5073712;28;20492;-68
2024/02/14 08:31:19;;;;;;;1.60;0.87;;;;;;;;;;5072857;28;20020;-68
2024/02/14 08:33:44;;;;;;;0.70;0.70;;;;;;;;;;5073339;28;20242;-68
2024/02/14 08:36:10;;;;;;;0.27;0.20;;;;;;;;;;5073297;28;20105;-68
2024/02/14 08:38:35;;;;;;;0.38;0.38;;;;;;;;;;5073558;28;20518;-68
2024/02/14 08:41:01;;;;;;;0.08;0.08;;;;;;;;;;5073506;28;20476;-68
2024/02/14 08:43:28;;;;;;;0.73;0.65;;;;;;;;;;5073520;28;20480;-68
2024/02/14 08:45:53;;;;;;;0.10;0.10;;;;;;;;;;5073150;28;20033;-68
2024/02/14 08:48:19;;;;;;;1.35;0.73;;;;;;;;;;5073217;28;20025;-68
2024/02/14 08:50:45;;;;;;;0.88;0.50;;;;;;;;;;5073423;28;20031;-68
2024/02/14 08:53:12;;;;;;;0.00;0.00;;;;;;;;;;5073380;28;20107;-68
2024/02/14 08:55:38;;;;;;;0.47;0.47;;;;;;;;;;5073311;28;20071;-69
2024/02/14 08:58:04;;;;;;;0.28;0.28;;;;;;;;;;5073070;28;20025;-68
2024/02/14 09:00:30;;;;;;;0.50;0.50;;;;;;;;;;5073126;28;20028;-68
2024/02/14 09:02:56;;;;;;;0.30;0.28;;;;;;;;;;5055056;28;20449;-68
2024/02/14 09:05:22;;;;;;;0.40;0.40;;;;;;;;;;5072976;28;20044;-69
2024/02/14 09:07:47;;;;;;;0.13;0.13;;;;;;;;;;5072956;28;20055;-68
2024/02/14 09:10:12;;;;;;;0.40;0.40;;;;;;;;;;5073248;28;20048;-68
2024/02/14 09:12:38;;;;;;;0.40;0.30;;;;;;;;;;5072980;28;20442;-68
2024/02/14 09:15:04;;;;;;;0.17;0.17;;;;;;;;;;5072946;28;20299;-68
2024/02/14 09:17:29;;;;;;;0.95;0.63;;;;;;;;;;5072798;28;20104;-68
2024/02/14 09:19:55;;;;;;;1.67;0.90;;;;;;;;;;5072974;28;20062;-68
2024/02/14 09:22:21;;;;;;;0.93;0.37;;;;;;;;;;5072899;28;20281;-68
2024/02/14 09:24:47;;;;;;;0.10;0.10;;;;;;;;;;5068285;28;20277;-68
2024/02/14 09:27:13;;;;;;;1.08;0.73;;;;;;;;;;5073075;28;20035;-68
2024/02/14 09:29:38;;;;;;;1.02;0.68;;;;;;;;;;5073038;28;20472;-68
2024/02/14 09:32:03;;;;;;;0.40;0.40;;;;;;;;;;5073023;28;20082;-68
2024/02/14 09:34:29;;;;;;;0.30;0.30;;;;;;;;;;5072830;28;20016;-68
2024/02/14 09:36:56;;;;;;;2.30;0.60;;;;;;;;;;5072929;28;20472;-68
2024/02/14 09:39:21;;;;;;;0.73;0.73;;;;;;;;;;5072669;28;20028;-68
2024/02/14 09:41:51;;;;;;;0.30;0.30;;;;;;;;;;5074348;28;20020;-68
2024/02/14 09:44:16;;;;;;;0.20;0.20;;;;;;;;;;5076373;28;20281;-68
2024/02/14 09:46:41;;;;;;;0.60;0.60;;;;;;;;;;5076621;28;20059;-68
2024/02/14 09:49:07;;;;;;;0.17;0.17;;;;;;;;;;5076440;28;20103;-68
2024/02/14 09:51:32;;;;;;;0.10;0.10;;;;;;;;;;5076506;28;20029;-68
2024/02/14 09:53:59;;;;;;;0.57;0.57;;;;;;;;;;5076262;28;20081;-68
2024/02/14 09:56:25;;;;;;;0.98;0.95;;;;;;;;;;5076115;28;20028;-68
2024/02/14 09:58:55;;;;;;;1.00;0.80;;;;;;;;;;5076245;28;20420;-67
2024/02/14 10:01:23;;;;;;;0.70;0.50;;;;;;;;;;5076342;28;20503;-67
2024/02/14 10:03:49;;;;;;;0.30;0.30;;;;;;;;;;5076271;28;20020;-67
2024/02/14 10:06:14;;;;;;;0.20;0.20;;;;;;;;;;5076217;28;20349;-67
2024/02/14 10:08:40;;;;;;;0.20;0.20;;;;;;;;;;5075976;28;20476;-67
2024/02/14 10:11:06;;;;;;;0.20;0.20;;;;;;;;;;5075868;28;20033;-67
2024/02/14 10:13:31;;;;;;;1.05;0.95;;;;;;;;;;5075952;28;20031;-67
2024/02/14 10:15:57;;;;;;;0.70;0.70;;;;;;;;;;5075844;28;20491;-67
2024/02/14 10:18:22;;;;;;;0.20;0.20;;;;;;;;;;5076044;28;20025;-67
2024/02/14 10:20:54;;;;;;;0.70;0.65;;;;;;;;;;5075973;28;20085;-67
2024/02/14 10:23:20;;;;;;;0.20;0.20;;;;;;;;;;5074162;28;20016;-67
2024/02/14 10:25:45;;;;;;;0.13;0.13;;;;;;;;;;5074981;28;20052;-67
2024/02/14 10:28:10;;;;;;;0.20;0.20;;;;;;;;;;5075645;28;20504;-67
2024/02/14 10:30:37;;;;;;;0.50;0.43;;;;;;;;;;5075604;28;20029;-67
2024/02/14 10:33:03;;;;;;;0.10;0.10;;;;;;;;;;5075797;28;20030;-67
2024/02/14 10:35:30;;;;;;;3.97;0.88;;;;;;;;;;5057367;28;20455;-67
2024/02/14 10:38:00;;;;;;;3.80;0.63;;;;;;;;;;5075693;28;20047;-67
2024/02/14 10:40:27;;;;;;;3.08;1.17;;;;;;;;;;5075656;28;20104;-67
2024/02/14 10:42:54;;;;;;;0.15;0.15;;;;;;;;;;5057303;28;20020;-67
2024/02/14 10:45:20;;;;;;;0.13;0.13;;;;;;;;;;5075343;28;20019;-67
2024/02/14 10:47:48;;;;;;;0.40;0.40;;;;;;;;;;5075462;28;20020;-67
2024/02/14 10:50:14;;;;;;;0.75;0.75;;;;;;;;;;5075128;28;20017;-67
2024/02/14 10:52:40;;;;;;;0.20;0.20;;;;;;;;;;5074575;28;20031;-66
2024/02/14 10:55:06;;;;;;;0.13;0.13;;;;;;;;;;5075052;28;20012;-67
2024/02/14 10:57:34;;;;;;;0.32;0.32;;;;;;;;;;5075269;28;20036;-67
2024/02/14 11:00:01;;;;;;;0.38;0.38;;;;;;;;;;5075297;28;20065;-67
2024/02/14 11:02:30;;;;;;;0.50;0.50;;;;;;;;;;5074932;28;20017;-66
2024/02/14 11:04:55;;;;;;;0.43;0.43;;;;;;;;;;5074886;28;20021;-67
2024/02/14 11:07:22;;;;;;;0.47;0.47;;;;;;;;;;5074969;28;20028;-68
2024/02/14 11:09:48;;;;;;;0.93;0.52;;;;;;;;;;5075087;28;20476;-68
2024/02/14 11:12:14;;;;;;;0.08;0.08;;;;;;;;;;5074697;28;20035;-69
2024/02/14 11:14:42;;;;;;;0.32;0.32;;;;;;;;;;5074988;28;20016;-69
2024/02/14 11:17:13;;;;;;;4.28;0.60;;;;;;;;;;5074659;28;20074;-69
2024/02/14 11:19:38;;;;;;;0.45;0.45;;;;;;;;;;5074882;28;20028;-69
2024/02/14 11:22:10;;;;;;;0.43;0.43;;;;;;;;;;5074821;28;20468;-69
2024/02/14 11:24:36;;;;;;;0.20;0.20;;;;;;;;;;5074364;28;20059;-69
2024/02/14 11:27:01;;;;;;;0.47;0.47;;;;;;;;;;5074496;28;20481;-69
2024/02/14 11:29:32;;;;;;;0.32;0.32;;;;;;;;;;5074438;28;20025;-69
2024/02/14 11:31:59;;;;;;;0.10;0.10;;;;;;;;;;5074308;28;20025;-69
2024/02/14 11:34:25;;;;;;;0.30;0.30;;;;;;;;;;5074273;28;20059;-69
2024/02/14 11:36:51;;;;;;;0.15;0.15;;;;;;;;;;5074438;28;20052;-69
2024/02/14 11:39:16;;;;;;;0.20;0.20;;;;;;;;;;5074251;28;20024;-69
2024/02/14 11:41:42;;;;;;;0.40;0.40;;;;;;;;;;5074177;28;20009;-69
2024/02/14 11:44:07;;;;;;;0.73;0.50;;;;;;;;;;5056217;28;20253;-69
2024/02/14 11:46:33;;;;;;;0.10;0.10;;;;;;;;;;5074131;28;20024;-70
2024/02/14 11:49:00;;;;;;;0.82;0.50;;;;;;;;;;5074037;28;20021;-70
2024/02/14 11:51:26;;;;;;;0.20;0.20;;;;;;;;;;5074224;28;20508;-69
2024/02/14 11:53:51;;;;;;;2.28;0.32;;;;;;;;;;5056107;28;20141;-69
2024/02/14 11:56:17;;;;;;;0.20;0.20;;;;;;;;;;5073835;28;20024;-69
2024/02/14 11:58:42;;;;;;;1.47;0.67;;;;;;;;;;5074124;28;20031;-69
2024/02/14 12:01:09;;;;;;;0.07;0.07;;;;;;;;;;5073806;28;20242;-69
2024/02/14 12:03:35;;;;;;;0.00;0.00;;;;;;;;;;5074474;28;20016;-69
2024/02/14 12:06:00;;;;;;;0.30;0.30;;;;;;;;;;5073869;28;20472;-69
2024/02/14 12:08:25;;;;;;;0.10;0.10;;;;;;;;;;5073720;28;20016;-69
2024/02/14 12:10:51;;;;;;;0.15;0.15;;;;;;;;;;5073721;28;20032;-69
2024/02/14 12:13:17;;;;;;;1.02;0.95;;;;;;;;;;5073769;28;20028;-69
2024/02/14 12:15:47;;;;;;;0.03;0.03;;;;;;;;;;5073536;28;20021;-69
2024/02/14 12:18:13;;;;;;;0.55;0.55;;;;;;;;;;5073673;28;20024;-66
2024/02/14 12:20:39;;;;;;;0.00;0.00;;;;;;;;;;5073807;28;20020;-67
2024/02/14 12:23:05;;;;;;;0.00;0.00;;;;;;;;;;5073889;28;20361;-67
2024/02/14 12:25:31;;;;;;;0.10;0.10;;;;;;;;;;5073097;28;20048;-67
2024/02/14 12:27:57;;;;;;;0.10;0.10;;;;;;;;;;5073681;28;20032;-67
2024/02/14 12:30:23;;;;;;;0.20;0.20;;;;;;;;;;5073617;28;20027;-67
2024/02/14 12:32:57;;;;;;;0.10;0.10;;;;;;;;;;5073396;28;20020;-67
2024/02/14 12:35:23;;;;;;;0.10;0.10;;;;;;;;;;5073258;28;20335;-67
2024/02/14 12:37:48;;;;;;;0.10;0.10;;;;;;;;;;5073402;28;20071;-67
2024/02/14 12:40:13;;;;;;;0.07;0.07;;;;;;;;;;5073352;28;20708;-67
2024/02/14 12:42:38;;;;;;;0.37;0.37;;;;;;;;;;5073309;28;20248;-67
2024/02/14 12:45:04;;;;;;;0.10;0.10;;;;;;;;;;5073367;28;20256;-67
2024/02/14 12:47:33;;;;;;;0.10;0.10;;;;;;;;;;5073160;28;20253;-67
2024/02/14 12:49:59;;;;;;;0.10;0.10;;;;;;;;;;5073463;28;20032;-67
2024/02/14 12:52:25;;;;;;;0.30;0.30;;;;;;;;;;5073139;28;20024;-67
2024/02/14 12:54:50;;;;;;;0.13;0.13;;;;;;;;;;5073402;28;20033;-67
2024/02/14 12:57:15;;;;;;;0.07;0.07;;;;;;;;;;5073105;28;20020;-67
2024/02/14 12:59:41;;;;;;;1.70;0.97;;;;;;;;;;5073119;28;20245;-67
2024/02/14 13:02:06;;;;;;;0.57;0.55;;;;;;;;;;5073364;28;20016;-67
2024/02/14 13:04:31;;;;;;;0.32;0.32;;;;;;;;;;5073374;28;20040;-67
2024/02/14 13:06:57;;;;;;;0.10;0.10;;;;;;;;;;5073043;28;20020;-67
2024/02/14 13:09:22;;;;;;;0.30;0.30;;;;;;;;;;5073057;28;20028;-67
2024/02/14 13:11:47;;;;;;;0.07;0.07;;;;;;;;;;5072911;28;20260;-67
2024/02/14 13:14:12;;;;;;;0.20;0.20;;;;;;;;;;5073059;28;20017;-67
2024/02/14 13:16:38;;;;;;;0.93;0.80;;;;;;;;;;5074317;28;20617;-67
2024/02/14 13:19:04;;;;;;;0.10;0.10;;;;;;;;;;5059070;28;20024;-67
2024/02/14 13:21:30;;;;;;;0.30;0.30;;;;;;;;;;5077158;28;20499;-67
2024/02/14 13:23:57;;;;;;;0.10;0.10;;;;;;;;;;5076931;28;20020;-67
2024/02/14 13:26:22;;;;;;;0.30;0.20;;;;;;;;;;5077022;28;20496;-67
2024/02/14 13:28:47;;;;;;;0.30;0.30;;;;;;;;;;5077120;28;20074;-69
2024/02/14 13:31:12;;;;;;;0.30;0.30;;;;;;;;;;5076746;28;20052;-69
2024/02/14 13:33:37;;;;;;;0.20;0.20;;;;;;;;;;5076647;28;20250;-69
2024/02/14 13:36:03;;;;;;;0.00;0.00;;;;;;;;;;5076612;28;20301;-69
2024/02/14 13:38:29;;;;;;;0.20;0.20;;;;;;;;;;5076812;28;20601;-69
2024/02/14 13:40:54;;;;;;;0.10;0.10;;;;;;;;;;5076726;28;20073;-69
2024/02/14 13:43:19;;;;;;;0.63;0.63;;;;;;;;;;5076504;28;20430;-69
2024/02/14 13:45:45;;;;;;;0.10;0.10;;;;;;;;;;5076633;28;20789;-69
2024/02/14 13:48:11;;;;;;;0.25;0.25;;;;;;;;;;5076340;28;20021;-69
2024/02/14 13:50:39;;;;;;;0.17;0.17;;;;;;;;;;5076575;28;20017;-69
2024/02/14 13:53:04;;;;;;;0.10;0.10;;;;;;;;;;5076486;28;20035;-69
2024/02/14 13:55:29;;;;;;;0.28;0.28;;;;;;;;;;5076432;28;20020;-69
2024/02/14 13:57:55;;;;;;;0.30;0.30;;;;;;;;;;5076208;28;20020;-69
2024/02/14 14:00:20;;;;;;;0.00;0.00;;;;;;;;;;5076178;28;20265;-69
2024/02/14 14:02:45;;;;;;;0.10;0.10;;;;;;;;;;5076108;28;20270;-69
2024/02/14 14:05:11;;;;;;;0.17;0.17;;;;;;;;;;5076318;28;20023;-69
2024/02/14 14:07:37;;;;;;;0.17;0.17;;;;;;;;;;5075944;28;20380;-69
2024/02/14 14:10:03;;;;;;;0.00;0.00;;;;;;;;;;5075957;28;20103;-68
2024/02/14 14:12:28;;;;;;;0.10;0.10;;;;;;;;;;5075851;28;20055;-68
2024/02/14 14:14:54;;;;;;;0.20;0.20;;;;;;;;;;5075900;28;20025;-69
2024/02/14 14:17:19;;;;;;;0.95;0.50;;;;;;;;;;5076015;28;20025;-69
2024/02/14 14:19:44;;;;;;;0.03;0.03;;;;;;;;;;5076021;28;20016;-69
2024/02/14 14:22:10;;;;;;;0.10;0.10;;;;;;;;;;5075779;28;20027;-69
2024/02/14 14:24:35;;;;;;;0.03;0.03;;;;;;;;;;5075558;28;20086;-68
2024/02/14 14:27:02;;;;;;;0.28;0.28;;;;;;;;;;5075163;28;20568;-69
2024/02/14 14:29:28;;;;;;;0.00;0.00;;;;;;;;;;5074943;28;20476;-69
2024/02/14 14:31:53;;;;;;;0.10;0.10;;;;;;;;;;5075595;28;20028;-69
2024/02/14 14:34:19;;;;;;;0.00;0.00;;;;;;;;;;5075806;28;20035;-69